Terminal Aerodrome Forecast
Issued by NWS Charleston, SC

Home | Current Version | Previous Version | Text Only | Print | Product List | Glossary On
Versions: 1 2 3 4 5 6 7 8 9 10 11 12
073
FTUS42 KCHS 170531
TAFCHS
TAF
KCHS 170531Z 1706/1806 00000KT P6SM MIFG SCT250
      TEMPO 1708/1712 5SM MIFG
     FM171300 VRB03KT P6SM SCT250
     FM172300 VRB03KT P6SM SCT030 BKN080=

USA.gov is the U.S. government's official web portal to all federal, state and local government web resources and services.